Time;durP1;ratioP1;P1;durP2;ratioP2;P2;SDS_P1;SDS_P2;PMS_P1;PMS_P2;Temp;Humidity;BMP_temperature;BMP_pressure;BME280_temperature;BME280_humidity;BME280_pressure;Samples;Min_cycle;Max_cycle;Signal;HPM_P1;HPM_P2
2022/11/03 00:00:28;;;;;;;36.28;18.15;;;;;;;8.26;100.00;99527.90;1686284;84;21007;-78
2022/11/03 00:02:58;;;;;;;34.55;17.95;;;;;;;8.27;100.00;99528.97;1690298;84;20907;-77
2022/11/03 00:08:15;;;;;;;31.70;15.28;;;;;;;8.28;100.00;99529.22;1691284;84;21870;-76
2022/11/03 00:10:49;;;;;;;37.73;16.27;;;;;;;8.28;100.00;99522.38;1677871;84;20999;-77
2022/11/03 00:13:21;;;;;;;28.60;15.65;;;;;;;8.27;100.00;99523.50;1694611;83;20916;-77
2022/11/03 00:15:54;;;;;;;29.02;15.95;;;;;;;8.28;100.00;99529.22;1672375;84;20939;-77
2022/11/03 00:18:28;;;;;;;28.60;14.93;;;;;;;8.29;100.00;99523.20;1685159;84;20895;-77
2022/11/03 00:21:02;;;;;;;25.68;13.98;;;;;;;8.29;100.00;99528.66;1691642;84;21120;-77
2022/11/03 00:23:33;;;;;;;29.42;14.35;;;;;;;8.28;100.00;99525.12;1687966;83;20964;-77
2022/11/03 00:26:24;;;;;;;28.65;14.55;;;;;;;8.29;100.00;99523.20;1698762;83;20965;-78
2022/11/03 00:29:04;;;;;;;28.10;14.35;;;;;;;8.29;100.00;99523.20;1678011;84;21462;-77
2022/11/03 00:31:31;;;;;;;27.42;14.07;;;;;;;8.29;100.00;99521.27;1694672;84;21069;-77
2022/11/03 00:33:59;;;;;;;24.95;13.40;;;;;;;8.29;100.00;99518.54;1688743;83;21526;-77
2022/11/03 00:36:38;;;;;;;33.33;14.53;;;;;;;8.31;100.00;99521.53;1693437;83;20960;-77
2022/11/03 00:39:08;;;;;;;26.02;13.90;;;;;;;8.32;100.00;99519.86;1690889;83;20989;-78
2022/11/03 00:41:41;;;;;;;26.33;13.83;;;;;;;8.32;100.00;99509.48;1688161;83;20935;-78
2022/11/03 00:44:14;;;;;;;27.25;14.47;;;;;;;8.31;100.00;99505.12;1661660;83;21435;-77
2022/11/03 00:46:44;;;;;;;30.40;14.18;;;;;;;8.31;100.00;99509.22;1689431;83;21142;-77
2022/11/03 00:49:22;;;;;;;29.90;13.88;;;;;;;8.32;100.00;99508.11;1692552;84;21431;-77
2022/11/03 00:51:50;;;;;;;22.73;12.63;;;;;;;8.34;100.00;99514.13;1686216;83;20939;-77
2022/11/03 00:54:22;;;;;;;22.90;13.00;;;;;;;8.36;100.00;99513.27;1697551;84;21561;-77
2022/11/03 00:56:56;;;;;;;25.60;11.85;;;;;;;8.36;100.00;99514.63;1702344;84;21008;-76
2022/11/03 00:59:31;;;;;;;22.67;12.10;;;;;;;8.36;100.00;99516.81;1686848;84;21753;-76
2022/11/03 01:02:01;;;;;;;23.00;12.25;;;;;;;8.36;100.00;99516.81;1686432;84;20988;-76
2022/11/03 01:07:22;;;;;;;25.08;13.20;;;;;;;8.36;100.00;99511.89;1679446;84;21419;-76
2022/11/03 01:09:52;;;;;;;25.85;12.28;;;;;;;8.35;100.00;99508.35;1690889;84;20938;-75
2022/11/03 01:12:24;;;;;;;20.60;11.60;;;;;;;8.34;100.00;99506.73;1694224;82;22453;-75
2022/11/03 01:14:52;;;;;;;23.00;12.25;;;;;;;8.33;100.00;99495.53;1679736;84;20990;-75
2022/11/03 01:17:27;;;;;;;22.80;12.30;;;;;;;8.30;100.00;99498.84;1678056;83;20916;-77
2022/11/03 01:19:55;;;;;;;21.95;12.05;;;;;;;8.30;100.00;99500.20;1692248;84;20914;-78
2022/11/03 01:22:28;;;;;;;19.57;11.78;;;;;;;8.29;100.00;99503.50;1691632;84;21474;-76
2022/11/03 01:24:57;;;;;;;22.20;11.35;;;;;;;8.30;100.00;99502.94;1689406;84;21120;-77
2022/11/03 01:27:29;;;;;;;23.45;11.97;;;;;;;8.32;100.00;99502.08;1665048;83;20931;-77
2022/11/03 01:29:57;;;;;;;19.32;11.57;;;;;;;8.32;100.00;99505.37;1688423;83;20927;-76
2022/11/03 01:32:28;;;;;;;23.50;11.40;;;;;;;8.33;100.00;99508.39;1690647;84;21527;-77
2022/11/03 01:34:59;;;;;;;22.05;12.30;;;;;;;8.33;100.00;99507.03;1688192;83;21075;-77
2022/11/03 01:37:30;;;;;;;25.97;11.95;;;;;;;8.31;100.00;99505.12;1695973;83;20895;-77
2022/11/03 01:39:59;;;;;;;19.30;11.65;;;;;;;8.32;100.00;99499.91;1690138;83;22403;-77
2022/11/03 01:42:31;;;;;;;22.25;11.22;;;;;;;8.32;100.00;99505.37;1694845;83;20990;-77
2022/11/03 01:45:03;;;;;;;20.55;11.55;;;;;;;8.33;100.00;99513.31;1685343;84;20904;-76
2022/11/03 01:47:32;;;;;;;20.80;10.80;;;;;;;8.35;100.00;99514.38;1696847;82;20930;-76
2022/11/03 01:50:10;;;;;;;25.43;12.13;;;;;;;8.35;100.00;99509.72;1688599;83;21010;-77
2022/11/03 01:52:53;;;;;;;21.55;11.85;;;;;;;8.34;100.00;99508.65;1666747;83;20852;-77
2022/11/03 01:55:40;;;;;;;22.55;12.00;;;;;;;8.33;100.00;99509.20;1682802;84;20928;-78
2022/11/03 01:58:36;;;;;;;22.52;11.50;;;;;;;8.31;100.00;99505.93;1660813;84;21482;-78
2022/11/03 02:01:01;;;;;;;25.92;11.12;;;;;;;8.30;100.00;99502.94;1683880;84;20920;-78
2022/11/03 02:03:36;;;;;;;19.45;11.25;;;;;;;8.29;100.00;99494.48;1685777;83;21200;-78
2022/11/03 02:06:07;;;;;;;18.73;11.35;;;;;;;8.28;100.00;99495.59;1691375;84;21490;-77
2022/11/03 02:08:53;;;;;;;18.10;10.85;;;;;;;8.28;100.00;99495.59;1664273;84;21514;-78
2022/11/03 02:14:17;;;;;;;20.43;11.63;;;;;;;8.33;100.00;99504.30;1697166;84;20996;-78
2022/11/03 02:16:59;;;;;;;25.15;11.10;;;;;;;8.31;100.00;99500.46;1675142;84;21952;-77
2022/11/03 02:19:49;;;;;;;23.27;12.23;;;;;;;8.29;100.00;99504.05;1692519;84;21172;-77
2022/11/03 02:22:44;;;;;;;19.42;10.95;;;;;;;8.26;100.00;99511.49;1692882;83;20982;-76
2022/11/03 02:25:51;;;;;;;16.85;10.40;;;;;;;8.25;100.00;99498.93;1653228;85;21010;-77
2022/11/03 02:28:22;;;;;;;18.05;9.73;;;;;;;8.25;100.00;99507.13;1696050;84;21510;-78
2022/11/03 02:31:17;;;;;;;14.98;9.85;;;;;;;8.25;100.00;99500.30;1687377;84;21950;-80
2022/11/03 02:34:21;;;;;;;14.18;8.98;;;;;;;8.25;100.00;99501.66;1683070;84;21007;-77
2022/11/03 02:36:58;;;;;;;14.98;8.88;;;;;;;8.25;100.00;99497.00;1688251;83;20939;-77
2022/11/03 02:39:35;;;;;;;15.25;9.45;;;;;;;8.27;100.00;99502.98;1682356;83;20939;-76
2022/11/03 02:42:13;;;;;;;15.00;9.03;;;;;;;8.28;100.00;99501.88;1692744;83;20967;-76
2022/11/03 02:44:43;;;;;;;16.07;9.65;;;;;;;8.29;100.00;99496.66;1695443;84;21560;-77
2022/11/03 02:47:12;;;;;;;18.60;10.00;;;;;;;8.31;100.00;99495.55;1694399;83;21427;-79
2022/11/03 02:49:49;;;;;;;16.15;9.78;;;;;;;8.32;100.00;99491.14;1681511;84;21446;-76
2022/11/03 02:52:41;;;;;;;15.75;9.08;;;;;;;8.35;100.00;99491.94;1693336;84;21014;-76
2022/11/03 02:55:39;;;;;;;16.10;9.53;;;;;;;8.36;100.00;99493.56;1666894;84;21577;-77
2022/11/03 02:58:20;;;;;;;17.80;9.75;;;;;;;8.38;100.00;99497.36;1692935;83;21769;-79
2022/11/03 03:01:14;;;;;;;15.78;9.40;;;;;;;8.39;100.00;99496.25;1700587;84;20911;-78
2022/11/03 03:03:54;;;;;;;16.10;9.55;;;;;;;8.39;100.00;99495.69;1691235;84;21471;-78
2022/11/03 03:06:31;;;;;;;16.60;9.60;;;;;;;8.39;100.00;99482.02;1674457;85;20967;-77
2022/11/03 03:09:08;;;;;;;14.87;9.38;;;;;;;8.39;100.00;99488.05;1687016;84;21458;-77
2022/11/03 03:11:39;;;;;;;16.30;9.15;;;;;;;8.38;100.00;99484.50;1687394;84;21496;-79
2022/11/03 03:14:16;;;;;;;20.32;9.88;;;;;;;8.36;100.00;99481.80;1686181;84;20915;-78
2022/11/03 03:16:53;;;;;;;16.05;10.43;;;;;;;8.38;100.00;99476.29;1666851;84;21015;-77
2022/11/03 03:20:04;;;;;;;16.00;9.73;;;;;;;8.38;100.00;99484.50;1662189;83;21003;-78
2022/11/03 03:22:48;;;;;;;22.50;10.82;;;;;;;8.39;100.00;99472.44;1693963;83;20962;-77
2022/11/03 03:25:23;;;;;;;19.90;10.38;;;;;;;8.41;100.00;99469.41;1690126;82;21275;-78
2022/11/03 03:27:55;;;;;;;18.90;10.82;;;;;;;8.41;100.00;99464.74;1697595;84;20919;-76
2022/11/03 03:30:26;;;;;;;21.17;10.53;;;;;;;8.43;100.00;99461.14;1682226;84;21041;-77
2022/11/03 03:32:58;;;;;;;19.70;10.55;;;;;;;8.46;100.00;99461.91;1685500;84;20991;-77
2022/11/03 03:35:30;;;;;;;19.87;10.32;;;;;;;8.49;100.00;99460.49;1691973;83;21026;-77
2022/11/03 03:38:08;;;;;;;15.80;9.35;;;;;;;8.52;100.00;99461.25;1685113;84;21122;-77
2022/11/03 03:40:39;;;;;;;28.05;13.75;;;;;;;8.53;100.00;99456.84;1692271;84;20999;-77
2022/11/03 03:43:09;;;;;;;27.62;12.45;;;;;;;8.56;100.00;99453.50;1693224;84;21089;-77
2022/11/03 03:45:36;;;;;;;23.73;10.65;;;;;;;8.59;100.00;99454.26;1692777;84;21014;-75
2022/11/03 03:48:04;;;;;;;28.27;13.65;;;;;;;8.63;100.00;99455.83;1697659;84;21094;-80
2022/11/03 03:50:35;;;;;;;28.98;13.58;;;;;;;8.65;100.00;99445.95;1692600;83;21548;-77
2022/11/03 03:53:06;;;;;;;32.35;14.40;;;;;;;8.68;100.00;99447.48;1695300;83;21031;-78
2022/11/03 03:55:41;;;;;;;35.88;14.73;;;;;;;8.72;100.00;99447.13;1678924;84;20986;-77
2022/11/03 03:58:29;;;;;;;38.75;16.52;;;;;;;8.77;100.00;99450.31;1690363;84;20907;-77
2022/11/03 04:00:48;;;;;;;35.17;15.08;;;;;;;8.81;100.00;99452.14;1695683;83;20997;-76
2022/11/03 04:03:23;;;;;;;32.20;15.63;;;;;;;8.85;100.00;99452.34;1695658;84;21189;-76
2022/11/03 04:06:01;;;;;;;29.02;13.18;;;;;;;8.89;100.00;99445.94;1699315;83;20896;-77
2022/11/03 04:08:28;;;;;;;40.60;16.35;;;;;;;8.94;100.00;99450.50;1668800;85;20911;-74
2022/11/03 04:22:21;;;;;;;32.28;14.33;;;;;;;9.11;100.00;99438.34;1674945;82;21585;-75
2022/11/03 04:24:51;;;;;;;29.55;14.90;;;;;;;9.15;100.00;99435.80;1676800;84;21020;-75
2022/11/03 04:27:26;;;;;;;32.20;14.90;;;;;;;9.18;100.00;99433.81;1670016;84;21099;-73
2022/11/03 04:30:10;;;;;;;32.13;15.40;;;;;;;9.20;100.00;99432.95;1687149;84;22124;-76
2022/11/03 04:32:45;;;;;;;24.43;13.38;;;;;;;9.21;100.00;99434.00;1684481;84;20859;-77
2022/11/03 04:35:30;;;;;;;28.95;14.58;;;;;;;9.25;100.00;99440.45;1686634;84;20943;-71
2022/11/03 04:38:09;;;;;;;33.23;16.32;;;;;;;9.29;100.00;99443.38;1690780;84;20995;-81
2022/11/03 04:40:43;;;;;;;31.93;16.00;;;;;;;9.31;100.00;99445.25;1686311;84;20860;-79
2022/11/03 04:43:13;;;;;;;29.55;15.75;;;;;;;9.34;100.00;99442.45;1691589;84;21094;-85
2022/11/03 04:45:47;;;;;;;29.95;14.80;;;;;;;9.36;100.00;99440.22;1692108;83;21071;-76
2022/11/03 04:48:21;;;;;;;31.00;15.45;;;;;;;9.37;100.00;99439.91;1691183;84;20982;-82
2022/11/03 04:50:56;;;;;;;27.13;14.53;;;;;;;9.40;100.00;99446.70;1689578;84;20900;-81
2022/11/03 04:53:31;;;;;;;28.23;15.38;;;;;;;9.41;100.00;99443.65;1698878;83;21044;-78
2022/11/03 04:56:06;;;;;;;24.77;11.55;;;;;;;9.42;100.00;99441.16;1696940;83;20895;-77
2022/11/03 04:58:38;;;;;;;28.38;13.22;;;;;;;9.44;100.00;99436.73;1689233;84;21578;-83
2022/11/03 05:01:10;;;;;;;;;;;;;;;9.44;100.00;99443.59;1675997;83;21140;-79
2022/11/03 05:03:36;;;;;;;23.52;13.05;;;;;;;9.44;100.00;99437.55;1650534;85;20147;-77
2022/11/03 05:06:22;;;;;;;29.80;14.23;;;;;;;9.45;100.00;99442.47;1686850;83;21014;-76
2022/11/03 05:08:56;;;;;;;29.45;14.55;;;;;;;9.45;100.00;99446.58;1685123;83;21318;-75
2022/11/03 05:11:40;;;;;;;27.90;14.15;;;;;;;9.45;100.00;99449.31;1687539;83;20943;-78
2022/11/03 05:14:25;;;;;;;26.90;13.98;;;;;;;9.44;100.00;99440.28;1689739;83;20938;-79
2022/11/03 05:17:00;;;;;;;26.90;12.63;;;;;;;9.44;100.00;99452.62;1662328;84;21035;-77
2022/11/03 05:19:41;;;;;;;24.18;11.97;;;;;;;9.44;100.00;99459.47;1690122;83;21015;-78
2022/11/03 05:22:19;;;;;;;31.12;13.13;;;;;;;9.46;100.00;99461.34;1665305;84;20986;-75
2022/11/03 05:24:59;;;;;;;23.67;11.83;;;;;;;9.47;100.00;99464.33;1671439;84;21057;-73
2022/11/03 05:27:26;;;;;;;24.18;12.70;;;;;;;9.48;100.00;99463.77;1688652;84;20990;-78
2022/11/03 05:30:01;;;;;;;26.20;12.43;;;;;;;9.48;100.00;99462.40;1688237;84;20989;-74
2022/11/03 05:32:32;;;;;;;27.67;12.73;;;;;;;9.49;100.00;99465.39;1687462;83;21536;-81
2022/11/03 05:35:08;;;;;;;28.65;13.35;;;;;;;9.50;100.00;99468.37;1702561;83;20895;-82
2022/11/03 05:37:39;;;;;;;26.73;12.75;;;;;;;9.48;100.00;99467.31;1687016;84;21572;-76
2022/11/03 05:40:29;;;;;;;21.75;11.83;;;;;;;9.50;100.00;99465.64;1684952;84;20999;-78
2022/11/03 05:43:01;;;;;;;28.30;13.08;;;;;;;9.51;100.00;99461.78;1684484;83;21153;-83
2022/11/03 05:45:35;;;;;;;22.85;12.10;;;;;;;9.54;100.00;99463.34;1685293;84;20884;-78
2022/11/03 05:48:05;;;;;;;28.30;13.13;;;;;;;9.56;100.00;99456.98;1664854;84;21116;-81
2022/11/03 05:50:35;;;;;;;24.02;12.40;;;;;;;9.60;100.00;99454.44;1688582;84;22309;-79
2022/11/03 05:53:20;;;;;;;25.68;12.05;;;;;;;9.64;100.00;99451.32;1687097;83;21125;-78
2022/11/03 05:55:55;;;;;;;27.55;13.53;;;;;;;9.70;100.00;99459.66;1690800;83;21021;-80
2022/11/03 05:58:36;;;;;;;23.10;11.95;;;;;;;9.74;100.00;99466.14;1686503;83;21152;-77
2022/11/03 06:01:27;;;;;;;23.27;13.33;;;;;;;9.82;100.00;99461.25;1630963;86;21151;-80
2022/11/03 06:04:03;;;;;;;24.82;12.82;;;;;;;9.82;100.00;99461.25;1660111;83;21812;-79
2022/11/03 06:06:37;;;;;;;27.05;12.00;;;;;;;9.88;100.00;99466.05;1634834;86;20996;-79
2022/11/03 06:09:17;;;;;;;27.80;12.93;;;;;;;9.93;100.00;99479.07;1661184;85;21036;-80
2022/11/03 06:11:45;;;;;;;25.32;11.70;;;;;;;9.96;100.00;99476.83;1642181;84;21044;-77
2022/11/03 06:14:21;;;;;;;21.60;12.33;;;;;;;9.97;100.00;99482.55;1656277;84;21287;-79
2022/11/03 06:17:01;;;;;;;24.45;11.90;;;;;;;9.97;100.00;99490.78;1654695;85;20975;-78
2022/11/03 06:19:41;;;;;;;27.37;12.93;;;;;;;9.94;100.00;99492.22;1631569;86;21039;-80
2022/11/03 06:22:32;;;;;;;25.23;13.20;;;;;;;9.93;100.00;99491.41;1625115;87;20972;-81
2022/11/03 06:25:15;;;;;;;23.30;12.33;;;;;;;9.89;100.00;99489.05;1654816;85;21178;-78
2022/11/03 06:27:44;;;;;;;31.40;13.83;;;;;;;9.91;100.00;99505.99;1634528;85;21291;-84
2022/11/03 06:30:28;;;;;;;27.05;12.75;;;;;;;9.89;100.00;99499.20;1633588;85;21063;-77
2022/11/03 06:33:17;;;;;;;27.35;14.07;;;;;;;9.88;100.00;99511.29;1632171;86;20976;-79
2022/11/03 06:35:51;;;;;;;29.15;14.15;;;;;;;9.88;100.00;99507.98;1657833;83;20947;-77
2022/11/03 06:38:24;;;;;;;22.82;11.93;;;;;;;9.90;100.00;99508.48;1700627;83;20999;-71
2022/11/03 06:40:52;;;;;;;33.50;13.25;;;;;;;9.90;100.00;99512.59;1693445;83;21175;-74
2022/11/03 06:43:24;;;;;;;26.62;13.38;;;;;;;9.90;100.00;99511.79;1692185;83;21048;-81
2022/11/03 06:45:54;;;;;;;29.37;13.05;;;;;;;9.89;100.00;99509.61;1688444;83;21058;-72
2022/11/03 06:48:28;;;;;;;26.07;12.03;;;;;;;9.91;100.00;99510.11;1658908;85;20964;-73
2022/11/03 06:51:01;;;;;;;22.25;12.10;;;;;;;9.91;100.00;99513.41;1657605;85;21115;-73
2022/11/03 06:53:31;;;;;;;30.80;13.03;;;;;;;9.93;100.00;99504.31;1649187;86;21025;-72
2022/11/03 06:56:00;;;;;;;28.87;12.87;;;;;;;9.94;100.00;99509.48;1657909;85;20868;-74
2022/11/03 06:58:38;;;;;;;26.12;12.82;;;;;;;9.96;100.00;99506.42;1660977;85;20990;-75
2022/11/03 07:01:23;;;;;;;26.73;11.97;;;;;;;10.00;100.00;99514.28;1616092;87;21036;-74
2022/11/03 07:04:15;;;;;;;23.75;11.57;;;;;;;10.06;100.00;99506.73;1666469;84;21492;-76
2022/11/03 07:06:52;;;;;;;20.27;10.98;;;;;;;10.11;100.00;99508.79;1637393;86;21152;-75
2022/11/03 07:09:38;;;;;;;25.43;10.93;;;;;;;10.13;100.00;99513.96;1652253;85;21072;-71
2022/11/03 07:12:02;;;;;;;21.23;11.40;;;;;;;10.15;100.00;99511.72;1629531;86;21049;-74
2022/11/03 07:14:40;;;;;;;23.85;11.68;;;;;;;10.17;100.00;99509.47;1629823;85;21492;-72
2022/11/03 07:17:20;;;;;;;19.57;11.80;;;;;;;10.17;100.00;99510.28;1603807;87;20990;-86
2022/11/03 07:19:51;;;;;;;24.65;12.23;;;;;;;10.17;100.00;99521.81;1637937;86;49649;-82
2022/11/03 07:22:23;;;;;;;26.00;11.20;;;;;;;10.14;100.00;99523.25;1632447;87;21137;-73
2022/11/03 07:24:55;;;;;;;25.15;13.45;;;;;;;10.13;100.00;99524.94;1601821;86;20960;-71
2022/11/03 07:27:39;;;;;;;29.63;12.47;;;;;;;10.11;100.00;99531.30;1632457;86;21605;-78
2022/11/03 07:30:23;;;;;;;27.60;13.60;;;;;;;10.10;100.00;99522.81;1631623;86;20967;-78
2022/11/03 07:32:52;;;;;;;28.52;13.30;;;;;;;10.07;100.00;99520.13;1618364;86;22235;-80
2022/11/03 07:35:26;;;;;;;28.07;13.40;;;;;;;10.06;100.00;99516.33;1619467;86;21048;-78
2022/11/03 07:37:57;;;;;;;22.82;12.75;;;;;;;10.06;100.00;99516.33;1604236;87;21648;-78
2022/11/03 07:40:29;;;;;;;27.48;13.03;;;;;;;10.02;100.00;99516.71;1677836;85;21027;-78
2022/11/03 07:42:58;;;;;;;20.90;12.50;;;;;;;10.00;100.00;99517.58;1664027;84;21029;-83
2022/11/03 07:45:54;;;;;;;28.25;13.43;;;;;;;9.98;100.00;99516.52;1643911;85;21798;-84
2022/11/03 07:48:24;;;;;;;32.78;13.70;;;;;;;9.94;100.00;99512.78;1634966;86;20947;-82
2022/11/03 07:50:58;;;;;;;24.05;12.82;;;;;;;9.91;100.00;99515.59;1623547;86;21672;-80
2022/11/03 07:53:43;;;;;;;26.95;13.83;;;;;;;9.89;100.00;99519.77;1628353;87;20963;-81
2022/11/03 07:56:22;;;;;;;31.07;13.93;;;;;;;9.84;100.00;99513.84;1632393;88;21423;-82
2022/11/03 07:59:10;;;;;;;24.65;12.43;;;;;;;9.80;100.00;99516.98;1632809;84;21946;-76
2022/11/03 08:01:44;;;;;;;34.90;14.00;;;;;;;9.76;100.00;99513.81;1630042;86;21037;-84
2022/11/03 08:04:21;;;;;;;25.72;13.00;;;;;;;9.71;100.00;99516.11;1634876;85;21093;-83
2022/11/03 08:06:49;;;;;;;31.60;14.93;;;;;;;9.67;100.00;99508.26;1664352;84;21002;-80
2022/11/03 08:09:15;;;;;;;34.85;14.93;;;;;;;9.65;100.00;99511.87;1659971;85;21538;-79
2022/11/03 08:11:49;;;;;;;28.95;14.80;;;;;;;9.65;100.00;99511.06;1662317;85;21041;-74
2022/11/03 08:14:24;;;;;;;32.40;14.53;;;;;;;9.64;100.00;99507.51;1663938;85;21097;-77
2022/11/03 08:16:54;;;;;;;28.42;15.50;;;;;;;9.63;100.00;99509.19;1664901;85;21002;-74
2022/11/03 08:19:29;;;;;;;28.70;14.25;;;;;;;9.63;100.00;99503.70;1620286;86;21640;-76
2022/11/03 08:21:55;;;;;;;32.98;15.32;;;;;;;9.65;100.00;99499.53;1657492;85;21030;-83
2022/11/03 08:24:28;;;;;;;30.45;15.95;;;;;;;9.59;100.00;99495.30;1645250;86;21712;-81
2022/11/03 08:27:02;;;;;;;34.08;16.17;;;;;;;9.57;100.00;99490.68;1662869;85;21451;-83
2022/11/03 08:29:28;;;;;;;31.80;16.05;;;;;;;9.59;100.00;99496.66;1655022;85;21055;-77
2022/11/03 08:32:00;;;;;;;31.82;17.55;;;;;;;9.62;100.00;99494.67;1662161;85;20911;-74
2022/11/03 08:34:33;;;;;;;34.40;16.15;;;;;;;9.65;100.00;99489.13;1645964;85;21035;-83
2022/11/03 08:37:01;;;;;;;30.90;16.55;;;;;;;9.66;100.00;99489.38;1657202;85;21546;-77
2022/11/03 08:39:34;;;;;;;35.23;17.52;;;;;;;9.65;100.00;99492.69;1702342;83;21036;-75
2022/11/03 08:42:08;;;;;;;39.42;17.52;;;;;;;9.67;100.00;99496.48;1657629;84;21007;-80
2022/11/03 08:44:34;;;;;;;37.03;18.62;;;;;;;9.66;100.00;99493.49;1655865;85;21043;-77
2022/11/03 08:47:05;;;;;;;33.10;17.90;;;;;;;9.65;100.00;99483.65;1696906;83;20960;-80
2022/11/03 08:49:38;;;;;;;35.17;18.37;;;;;;;9.63;100.00;99483.96;1694757;83;21266;-82
2022/11/03 08:52:12;;;;;;;37.08;17.92;;;;;;;9.61;100.00;99484.83;1634238;86;20935;-80
2022/11/03 08:54:43;;;;;;;28.10;15.48;;;;;;;9.63;100.00;99483.96;1658002;85;21541;-74
2022/11/03 08:57:19;;;;;;;41.88;18.12;;;;;;;9.64;100.00;99485.58;1657387;85;20967;-72
2022/11/03 08:59:47;;;;;;;36.48;17.73;;;;;;;9.66;100.00;99479.23;1671616;84;21101;-70
2022/11/03 09:02:21;;;;;;;37.58;18.50;;;;;;;9.67;100.00;99473.99;1657038;85;21101;-71
2022/11/03 09:04:52;;;;;;;32.50;17.20;;;;;;;9.69;100.00;99480.53;1672681;84;20927;-76
2022/11/03 09:07:19;;;;;;;30.10;15.95;;;;;;;9.70;100.00;99480.23;1657823;84;21004;-77
2022/11/03 09:09:49;;;;;;;37.33;17.40;;;;;;;9.70;100.00;99474.74;1655837;85;21605;-73
2022/11/03 09:12:22;;;;;;;36.95;17.75;;;;;;;9.70;100.00;99473.38;1661939;85;21114;-73
2022/11/03 09:14:53;;;;;;;29.70;15.32;;;;;;;9.72;100.00;99475.24;1667291;84;21549;-73
2022/11/03 09:17:23;;;;;;;30.72;15.63;;;;;;;9.73;100.00;99462.34;1660351;85;21073;-72
2022/11/03 09:19:51;;;;;;;38.88;17.07;;;;;;;9.71;100.00;99474.99;1660923;85;25739;-77
2022/11/03 09:22:20;;;;;;;29.25;14.98;;;;;;;9.72;100.00;99475.80;1660691;85;21003;-78
2022/11/03 09:24:48;;;;;;;31.90;15.90;;;;;;;9.71;100.00;99470.88;1654167;86;21110;-77
2022/11/03 09:27:15;;;;;;;31.97;16.25;;;;;;;9.72;100.00;99473.06;1662602;85;21166;-73
2022/11/03 09:29:44;;;;;;;36.50;17.82;;;;;;;9.72;100.00;99471.12;1660982;85;21015;-74
2022/11/03 09:32:12;;;;;;;31.55;17.48;;;;;;;9.74;100.00;99474.37;1658084;86;20966;-77
2022/11/03 09:34:40;;;;;;;33.65;17.05;;;;;;;9.73;100.00;99470.02;1658538;85;21562;-76
2022/11/03 09:37:11;;;;;;;32.63;17.35;;;;;;;9.72;100.00;99469.77;1661048;84;21062;-77
2022/11/03 09:39:39;;;;;;;28.65;15.23;;;;;;;9.72;100.00;99469.77;1653908;85;21158;-82
2022/11/03 09:42:07;;;;;;;37.05;16.25;;;;;;;9.70;100.00;99469.27;1635704;86;21066;-84
2022/11/03 09:44:40;;;;;;;31.00;16.93;;;;;;;9.71;100.00;99472.25;1639187;85;21139;-79
2022/11/03 09:47:13;;;;;;;30.05;15.75;;;;;;;9.69;100.00;99467.64;1640380;85;21014;-71
2022/11/03 09:49:40;;;;;;;33.75;16.35;;;;;;;9.69;100.00;99462.72;1651321;85;22456;-81
2022/11/03 09:52:11;;;;;;;32.00;17.12;;;;;;;9.68;100.00;99461.91;1664575;85;21150;-77
2022/11/03 09:54:41;;;;;;;28.75;16.82;;;;;;;9.68;100.00;99465.21;1674002;83;21594;-74
2022/11/03 09:57:13;;;;;;;31.27;15.53;;;;;;;9.69;100.00;99463.53;1669704;84;21113;-74
2022/11/03 09:59:47;;;;;;;35.93;18.40;;;;;;;9.70;100.00;99454.19;1661094;84;21031;-82
2022/11/03 10:02:25;;;;;;;30.72;16.45;;;;;;;9.68;100.00;99457.80;1663408;84;21541;-76
2022/11/03 10:05:01;;;;;;;31.50;17.48;;;;;;;9.71;100.00;99452.25;1658224;85;21012;-78
2022/11/03 10:07:31;;;;;;;28.45;14.95;;;;;;;9.70;100.00;99455.55;1641093;85;21015;-77
2022/11/03 10:10:04;;;;;;;25.23;14.47;;;;;;;9.71;100.00;99465.95;1644947;85;21042;-77
2022/11/03 10:12:37;;;;;;;23.02;14.80;;;;;;;9.70;100.00;99450.08;1660512;84;21514;-78
2022/11/03 10:15:15;;;;;;;28.77;15.80;;;;;;;9.71;100.00;99454.99;1656532;84;21025;-79
2022/11/03 10:17:49;;;;;;;34.25;16.73;;;;;;;9.73;100.00;99465.09;1645215;86;21018;-77
2022/11/03 10:20:18;;;;;;;29.37;16.05;;;;;;;9.76;100.00;99457.61;1637403;86;21016;-74
2022/11/03 10:22:49;;;;;;;28.05;15.93;;;;;;;9.77;100.00;99455.93;1655482;85;21723;-76
2022/11/03 10:25:40;;;;;;;34.55;16.12;;;;;;;9.80;100.00;99455.86;1637816;84;21063;-78
2022/11/03 10:28:28;;;;;;;28.73;16.32;;;;;;;9.83;100.00;99452.47;1661349;85;21128;-80
2022/11/03 10:31:07;;;;;;;25.27;16.32;;;;;;;9.89;100.00;99454.77;1631800;86;21111;-78
2022/11/03 10:33:42;;;;;;;37.38;16.90;;;;;;;9.97;100.00;99440.05;1626238;86;20951;-77
2022/11/03 10:36:20;;;;;;;32.90;16.07;;;;;;;9.99;100.00;99450.15;1661353;85;20955;-86
2022/11/03 10:38:51;;;;;;;27.48;15.83;;;;;;;9.99;100.00;99455.07;1664226;85;20919;-79
2022/11/03 10:41:21;;;;;;;;;;;;;;;9.97;100.00;99460.63;1677223;84;20958;-77
2022/11/03 10:44:07;;;;;;;29.18;16.17;;;;;;;9.92;100.00;99459.63;1670195;84;21132;-75
2022/11/03 10:46:36;;;;;;;29.30;15.53;;;;;;;9.86;100.00;99456.77;1675341;84;20961;-79
2022/11/03 10:49:15;;;;;;;29.12;13.45;;;;;;;9.79;100.00;99467.95;1668884;84;20997;-73
2022/11/03 10:51:45;;;;;;;23.22;14.65;;;;;;;9.72;100.00;99460.73;1683453;83;21002;-83
2022/11/03 10:54:15;;;;;;;27.00;12.80;;;;;;;9.65;100.00;99458.42;1685688;83;22209;-82
2022/11/03 10:56:47;;;;;;;27.60;14.23;;;;;;;9.59;100.00;99455.55;1616248;87;21038;-75
2022/11/03 10:59:30;;;;;;;25.35;13.48;;;;;;;9.57;100.00;99467.39;1648511;85;21011;-73
2022/11/03 11:01:58;;;;;;;25.08;13.88;;;;;;;9.55;100.00;99458.66;1659190;84;20988;-73
2022/11/03 11:04:38;;;;;;;29.23;14.40;;;;;;;9.53;100.00;99459.53;1680287;83;20919;-77
2022/11/03 11:07:32;;;;;;;24.75;13.22;;;;;;;9.51;100.00;99464.52;1700646;83;20935;-80
2022/11/03 11:10:14;;;;;;;21.33;13.60;;;;;;;9.48;100.00;99466.51;1695792;84;21246;-82
2022/11/03 11:13:17;;;;;;;20.75;12.33;;;;;;;9.45;100.00;99461.64;1703496;83;20853;-77
2022/11/03 11:15:50;;;;;;;22.25;13.25;;;;;;;9.47;100.00;99455.30;1675107;85;20939;-78
2022/11/03 11:18:31;;;;;;;;;;;;;;;9.47;100.00;99460.78;1670578;85;21612;-85
2022/11/03 11:21:01;;;;;;;23.85;13.15;;;;;;;9.45;100.00;99463.83;1662474;85;20430;-87
2022/11/03 11:23:40;;;;;;;18.87;11.97;;;;;;;9.43;100.00;99460.59;1636334;86;21180;-84
2022/11/03 11:26:28;;;;;;;24.95;12.65;;;;;;;9.43;100.00;99452.92;1635054;86;21084;-86
2022/11/03 11:29:14;;;;;;;23.25;13.70;;;;;;;9.41;100.00;99459.27;1632902;86;21111;-81
2022/11/03 11:31:46;;;;;;;25.15;14.93;;;;;;;9.40;100.00;99452.17;1636533;86;21015;-79
2022/11/03 11:34:24;;;;;;;31.05;17.60;;;;;;;9.40;100.00;99453.55;1607364;88;20986;-76
2022/11/03 11:37:00;;;;;;;31.33;19.87;;;;;;;9.43;100.00;99448.81;1676552;84;21802;-79
2022/11/03 11:39:39;;;;;;;30.70;17.92;;;;;;;9.41;100.00;99448.31;1647892;85;20923;-82
2022/11/03 11:42:17;;;;;;;29.48;17.07;;;;;;;9.43;100.00;99459.22;1693240;83;21006;-85
2022/11/03 11:44:57;;;;;;;28.95;16.30;;;;;;;9.45;100.00;99460.28;1676002;84;21522;-77
2022/11/03 11:47:46;;;;;;;27.60;14.53;;;;;;;9.43;100.00;99456.48;1673171;84;21042;-75
2022/11/03 11:50:21;;;;;;;26.17;13.78;;;;;;;9.42;100.00;99458.16;1664401;85;21316;-77
2022/11/03 11:53:02;;;;;;;26.80;14.20;;;;;;;9.40;100.00;99459.84;1671680;85;20892;-83
2022/11/03 11:55:57;;;;;;;25.68;14.75;;;;;;;9.39;100.00;99458.77;1677963;84;20911;-86
2022/11/03 11:58:53;;;;;;;24.67;14.23;;;;;;;9.40;100.00;99457.66;1672041;83;21053;-73
2022/11/03 12:01:33;;;;;;;32.35;15.48;;;;;;;9.35;100.00;99451.73;1668876;83;20949;-73
2022/11/03 12:04:12;;;;;;;25.65;14.20;;;;;;;9.33;100.00;99458.64;1665890;83;21810;-78
2022/11/03 12:06:42;;;;;;;22.35;14.33;;;;;;;9.31;100.00;99460.87;1673603;83;20970;-74
2022/11/03 12:09:21;;;;;;;21.07;13.28;;;;;;;9.31;100.00;99458.14;1659001;84;21086;-77
2022/11/03 12:11:57;;;;;;;20.02;13.32;;;;;;;9.31;100.00;99453.47;1689194;82;21002;-77
2022/11/03 12:14:37;;;;;;;26.12;14.50;;;;;;;9.30;100.00;99455.15;1687738;84;21016;-75
2022/11/03 12:17:23;;;;;;;27.00;14.78;;;;;;;9.25;100.00;99455.52;1695715;83;21794;-77